Airfield :
LOGIN :

Register | Disclaimer

   EN    FR    IT 

 










Legend :    VFR   Marginal VFR   IFR   Intensive IFR   Very Intensive IFR
Visi :
Ceiling :
>= 8 km
>= 3000ft
5 to 8 km
1000 to 3000 ft
1500m to 5 km
500 to 1000 ft
800 to 1500m
200 to 500 ft
< 800m
< 200 ft
Symbols :   Thunderstorms  Fog  Heavy snow  Heavy precipitations  Wind > 20 kt
SIGMETs :     Misc.  Thunderstorms  Icing  Turbulence  Mountain Waves  Volcanic Ashes






- Airport Elevation : 1299 ft


EDTY - Adolf Würth

CURRENT METAR :
  • 081520Z 07008KT 9999 FEW043 06/M04 Q1019

EXPIRED METARs :
  • 081450Z 08004KT 040V130 CAVOK 06/M03 Q1019
  • 081420Z 06005KT 010V090 9999 FEW037 06/M03 Q1019
  • 081350Z 06009KT 9999 SCT042 SCT049 05/M03 Q1020
  • 081320Z VRB05KT 9999 SCT044 05/M04 Q1020
  • 081250Z 05007KT 350V090 9999 FEW029 BKN040 06/M03 Q1020

TAF TAF EDTY
Valid from the 08 at 15:00 until the 09 at 00:00 UTC


081400Z 0815/0824 04007KT 9999 SCT045
BECMG 0817/0819 06002KT



MET'MAP, your aeronautical weather chart ! - Copyright ORBIFLY December 2007 - Disclaimer

ORBIFLY MET'MAP TEAM :

Programming & Development : Alexandra Zaïnal
Concept & original design : Baudouin d'Aumeries
Assistance for programming : Marc-Olivier Méhu
Technical & hardware support : Manuel Goepfert

Contact : metmap@orbifly.com




SOURCES & CREDITS :

   NOAA